createdAt,value
2023-03-11T00:01:01.696Z,80.73
2023-03-11T00:04:04.511Z,80.58
2023-03-11T00:07:08.651Z,80.59
2023-03-11T00:10:42.175Z,80.64
2023-03-11T00:13:44.853Z,80.33
2023-03-11T00:16:47.620Z,80.03
2023-03-11T00:19:50.293Z,79.73
2023-03-11T00:22:54.409Z,79.40
2023-03-11T00:25:57.369Z,79.13
2023-03-11T00:29:00.329Z,78.92
2023-03-11T00:32:02.973Z,78.80
2023-03-11T00:35:06.858Z,78.55
2023-03-11T00:38:13.869Z,78.43
2023-03-11T00:41:16.858Z,78.42
2023-03-11T00:44:19.543Z,78.39
2023-03-11T00:47:22.247Z,78.33
2023-03-11T00:50:29.340Z,78.17
2023-03-11T00:53:31.997Z,78.16
2023-03-11T00:56:34.729Z,78.04
2023-03-11T00:59:38.524Z,77.74
2023-03-11T01:02:41.280Z,77.52
2023-03-11T01:05:44.005Z,77.27
2023-03-11T01:08:46.875Z,77.14
2023-03-11T01:11:49.882Z,77.13
2023-03-11T01:14:52.609Z,77.22
2023-03-11T01:17:55.636Z,77.26
2023-03-11T01:20:58.302Z,76.96
2023-03-11T01:24:01.176Z,76.95
2023-03-11T01:27:04.798Z,76.78
2023-03-11T01:30:08.875Z,76.66
2023-03-11T01:33:17.844Z,76.72
2023-03-11T01:36:20.832Z,76.76
2023-03-11T01:39:23.706Z,76.99
2023-03-11T01:42:26.453Z,76.96
2023-03-11T01:45:29.101Z,77.19
2023-03-11T01:48:31.947Z,77.46
2023-03-11T01:51:46.324Z,77.43
2023-03-11T01:54:51.440Z,77.49
2023-03-11T01:57:55.570Z,77.21
2023-03-11T02:01:00.951Z,77.11
2023-03-11T02:04:04.141Z,77.28
2023-03-11T02:07:09.644Z,77.06
2023-03-11T02:10:13.798Z,77.10
2023-03-11T02:13:17.053Z,77.06
2023-03-11T02:16:19.885Z,76.99
2023-03-11T02:19:41.374Z,76.92
2023-03-11T02:22:44.594Z,76.85
2023-03-11T02:26:24.063Z,76.71
2023-03-11T02:29:29.252Z,76.63
2023-03-11T02:32:32.530Z,76.44
2023-03-11T02:35:35.444Z,76.00
2023-03-11T02:38:38.121Z,76.12
2023-03-11T02:41:46.183Z,76.24
2023-03-11T02:45:06.144Z,76.30
2023-03-11T02:48:11.840Z,76.17
2023-03-11T02:51:14.647Z,76.00
2023-03-11T02:54:17.277Z,75.78
2023-03-11T02:57:35.420Z,75.70
2023-03-11T03:00:38.508Z,75.78
2023-03-11T03:03:41.442Z,75.77
2023-03-11T03:06:44.300Z,75.65
2023-03-11T03:09:47.013Z,75.63
2023-03-11T03:12:49.834Z,75.61
2023-03-11T03:15:53.048Z,75.75
2023-03-11T03:18:55.720Z,75.65
2023-03-11T03:21:58.382Z,75.77
2023-03-11T03:25:01.099Z,76.00
2023-03-11T03:28:04.566Z,76.26
2023-03-11T03:31:12.102Z,76.51
2023-03-11T03:34:15.028Z,76.77
2023-03-11T03:37:37.192Z,76.98
2023-03-11T03:40:45.497Z,77.15
2023-03-11T03:43:48.180Z,77.36
2023-03-11T03:46:50.887Z,77.47
2023-03-11T03:49:53.556Z,77.87
2023-03-11T03:52:56.495Z,77.85
2023-03-11T03:56:03.055Z,77.92
2023-03-11T04:02:45.592Z,79.40
2023-03-11T04:05:48.388Z,80.12
2023-03-11T04:08:52.198Z,80.71
2023-03-11T04:11:55.017Z,81.54
2023-03-11T04:15:05.979Z,81.86
2023-03-11T04:18:08.723Z,82.34
2023-03-11T04:21:11.641Z,82.89
2023-03-11T04:24:14.453Z,83.50
2023-03-11T04:27:17.368Z,83.92
2023-03-11T04:30:20.322Z,84.27
2023-03-11T04:33:23.123Z,84.77
2023-03-11T04:36:25.948Z,84.97
2023-03-11T04:39:28.838Z,85.22
2023-03-11T04:42:35.637Z,85.35
2023-03-11T04:45:39.492Z,85.47
2023-03-11T04:48:42.427Z,85.80
2023-03-11T04:52:15.015Z,85.99
2023-03-11T04:55:17.979Z,86.21
2023-03-11T04:58:20.808Z,86.45
2023-03-11T05:01:23.494Z,86.54
2023-03-11T05:04:26.359Z,86.71
2023-03-11T05:07:29.172Z,86.79
2023-03-11T05:10:32.328Z,86.97
2023-03-11T05:13:35.503Z,87.11
2023-03-11T05:16:38.884Z,87.24
2023-03-11T05:19:41.533Z,87.37
2023-03-11T05:22:44.379Z,87.53
2023-03-11T05:25:47.188Z,87.65
2023-03-11T05:28:49.893Z,87.76
2023-03-11T05:31:52.648Z,87.82
2023-03-11T05:34:55.405Z,87.98
2023-03-11T05:37:58.232Z,87.96
2023-03-11T05:41:01.030Z,87.95
2023-03-11T05:44:04.300Z,88.07
2023-03-11T05:47:07.042Z,88.09
2023-03-11T05:50:11.958Z,88.14
2023-03-11T05:53:14.955Z,88.14
2023-03-11T05:56:20.356Z,88.19
2023-03-11T05:59:24.089Z,88.21
2023-03-11T06:02:26.931Z,88.32
2023-03-11T06:05:29.885Z,88.46
2023-03-11T06:08:34.664Z,88.50
2023-03-11T06:11:37.362Z,88.73
2023-03-11T06:14:40.070Z,88.78
2023-03-11T06:17:42.831Z,88.78
2023-03-11T06:20:45.514Z,88.89
2023-03-11T06:23:48.574Z,88.95
2023-03-11T06:26:53.034Z,89.00
2023-03-11T06:29:55.702Z,89.00
2023-03-11T06:32:58.491Z,89.07
2023-03-11T06:36:03.370Z,89.03
2023-03-11T06:39:06.930Z,89.09
2023-03-11T06:42:10.517Z,89.04
2023-03-11T06:45:13.767Z,89.08
2023-03-11T06:48:16.557Z,89.07
2023-03-11T06:51:21.323Z,89.12
2023-03-11T06:54:23.978Z,89.12
2023-03-11T06:57:27.748Z,89.20
2023-03-11T07:00:31.310Z,89.25
2023-03-11T07:03:34.218Z,89.19
2023-03-11T07:06:36.965Z,89.29
2023-03-11T07:09:42.397Z,89.31
2023-03-11T07:12:45.061Z,89.35
2023-03-11T07:15:47.799Z,89.33
2023-03-11T07:18:52.354Z,89.38
2023-03-11T07:22:11.584Z,89.45
2023-03-11T07:25:15.048Z,89.41
2023-03-11T07:28:17.853Z,89.44
2023-03-11T07:31:23.869Z,89.44
2023-03-11T07:34:26.810Z,89.37
2023-03-11T07:37:29.713Z,89.34
2023-03-11T07:40:32.621Z,89.42
2023-03-11T07:43:35.412Z,89.39
2023-03-11T07:46:38.294Z,89.46
2023-03-11T07:49:41.059Z,89.50
2023-03-11T07:52:44.186Z,89.49
2023-03-11T07:55:47.016Z,89.50
2023-03-11T07:58:50.411Z,89.54
2023-03-11T08:01:53.249Z,89.55
2023-03-11T08:04:57.165Z,89.49
2023-03-11T08:07:59.846Z,89.53
2023-03-11T08:11:07.193Z,89.50
2023-03-11T08:14:10.085Z,89.57
2023-03-11T08:17:13.416Z,89.49
2023-03-11T08:20:16.218Z,89.49
2023-03-11T08:23:18.996Z,89.51
2023-03-11T08:26:22.137Z,89.49
2023-03-11T08:29:25.176Z,89.51
2023-03-11T08:32:36.302Z,89.45
2023-03-11T08:35:39.108Z,89.40
2023-03-11T08:38:42.442Z,89.39
2023-03-11T08:41:54.226Z,89.37
2023-03-11T08:44:57.350Z,89.35
2023-03-11T08:48:00.301Z,89.27
2023-03-11T08:51:10.715Z,89.32
2023-03-11T08:54:13.389Z,89.32
2023-03-11T08:57:16.310Z,89.32
2023-03-11T09:00:19.459Z,89.27
2023-03-11T09:03:22.593Z,89.25
2023-03-11T09:06:25.765Z,89.22
2023-03-11T09:09:29.091Z,89.15
2023-03-11T09:12:32.095Z,89.16
2023-03-11T09:15:36.538Z,89.10
2023-03-11T09:18:39.455Z,89.05
2023-03-11T09:21:42.165Z,89.05
2023-03-11T09:24:47.795Z,89.03
2023-03-11T09:27:50.738Z,89.00
2023-03-11T09:31:27.851Z,88.98
2023-03-11T09:34:30.725Z,88.99
2023-03-11T09:37:33.558Z,88.90
2023-03-11T09:41:06.179Z,88.90
2023-03-11T09:48:29.874Z,88.75
2023-03-11T09:51:42.087Z,88.68
2023-03-11T09:54:51.570Z,88.63
2023-03-11T09:57:56.031Z,88.62
2023-03-11T10:00:58.689Z,88.54
2023-03-11T10:04:21.713Z,88.46
2023-03-11T10:07:31.629Z,88.39
2023-03-11T10:10:41.509Z,88.40
2023-03-11T10:14:06.086Z,88.30
2023-03-11T10:17:35.567Z,88.14
2023-03-11T10:20:48.485Z,88.12
2023-03-11T10:24:17.367Z,88.07
2023-03-11T10:27:28.530Z,88.01
2023-03-11T10:30:46.687Z,87.94
2023-03-11T10:33:56.623Z,87.81
2023-03-11T10:37:06.910Z,87.76
2023-03-11T10:40:31.070Z,87.66
2023-03-11T10:43:41.380Z,87.59
2023-03-11T10:46:44.199Z,87.51
2023-03-11T10:49:47.387Z,87.39
2023-03-11T10:53:06.779Z,87.24
2023-03-11T10:56:24.637Z,87.06
2023-03-11T10:59:50.698Z,86.92
2023-03-11T11:02:58.350Z,86.85
2023-03-11T11:06:07.106Z,86.73
2023-03-11T11:09:22.447Z,86.58
2023-03-11T11:12:32.331Z,86.44
2023-03-11T11:15:38.319Z,86.48
2023-03-11T11:18:49.419Z,86.43
2023-03-11T11:21:52.569Z,86.30
2023-03-11T11:25:25.460Z,86.13
2023-03-11T11:28:28.946Z,85.96
2023-03-11T11:35:25.923Z,85.84
2023-03-11T11:38:30.537Z,85.64
2023-03-11T11:41:36.788Z,85.46
2023-03-11T11:44:42.070Z,85.37
2023-03-11T11:47:52.453Z,85.25
2023-03-11T11:51:01.239Z,85.13
2023-03-11T11:57:37.257Z,85.36
2023-03-11T12:01:13.631Z,85.37
2023-03-11T12:04:28.506Z,85.31
2023-03-11T12:07:55.088Z,85.18
2023-03-11T12:11:03.101Z,85.22
2023-03-11T12:14:23.997Z,85.06
2023-03-11T12:17:29.298Z,84.95
2023-03-11T12:20:37.979Z,84.85
2023-03-11T12:24:16.300Z,84.73
2023-03-11T12:27:24.142Z,84.78
2023-03-11T12:30:31.500Z,84.78
2023-03-11T12:34:03.323Z,84.65
2023-03-11T12:37:14.815Z,84.63
2023-03-11T12:40:42.378Z,84.43
2023-03-11T12:43:46.317Z,84.09
2023-03-11T12:46:58.136Z,84.03
2023-03-11T12:50:39.999Z,83.64
2023-03-11T12:53:44.867Z,82.64
2023-03-11T12:57:15.023Z,81.83
2023-03-11T13:00:40.805Z,81.42
2023-03-11T13:04:02.597Z,81.30
2023-03-11T13:07:29.185Z,81.14
2023-03-11T13:10:43.645Z,80.66
2023-03-11T13:13:47.281Z,79.77
2023-03-11T13:16:50.650Z,79.33
2023-03-11T13:19:58.976Z,80.13
2023-03-11T13:23:01.708Z,80.41
2023-03-11T13:26:31.217Z,80.20
2023-03-11T13:29:46.363Z,79.22
2023-03-11T13:32:59.032Z,78.51
2023-03-11T13:36:26.028Z,78.66
2023-03-11T13:39:32.225Z,77.99
2023-03-11T13:42:44.496Z,77.91
2023-03-11T13:49:40.085Z,76.92
2023-03-11T13:52:49.037Z,76.93
2023-03-11T13:55:54.292Z,75.79
2023-03-11T13:59:35.996Z,75.38
2023-03-11T14:02:45.728Z,75.53
2023-03-11T14:05:57.038Z,75.62
2023-03-11T14:08:59.799Z,75.83
2023-03-11T14:12:10.215Z,76.63
2023-03-11T14:15:27.037Z,77.16
2023-03-11T14:18:38.042Z,76.91
2023-03-11T14:21:46.357Z,77.05
2023-03-11T14:24:49.165Z,77.44
2023-03-11T14:27:59.255Z,77.29
2023-03-11T14:31:09.654Z,77.76
2023-03-11T14:34:31.799Z,76.34
2023-03-11T14:37:37.633Z,76.48
2023-03-11T14:40:42.142Z,76.19
2023-03-11T14:43:52.738Z,75.19
2023-03-11T14:47:18.223Z,75.59
2023-03-11T14:50:44.180Z,74.78
2023-03-11T14:54:42.712Z,74.16
2023-03-11T14:58:26.864Z,74.48
2023-03-11T15:01:33.404Z,74.48
2023-03-11T15:04:39.409Z,73.95
2023-03-11T15:07:42.569Z,73.14
2023-03-11T15:11:26.047Z,73.74
2023-03-11T15:14:33.195Z,72.82
2023-03-11T15:17:43.536Z,74.13
2023-03-11T15:20:47.998Z,74.75
2023-03-11T15:24:02.137Z,75.17
2023-03-11T15:27:07.860Z,75.17
2023-03-11T15:30:31.629Z,75.45
2023-03-11T15:33:34.455Z,75.79
2023-03-11T15:36:44.892Z,76.10
2023-03-11T15:40:07.845Z,75.70
2023-03-11T15:43:16.095Z,75.93
2023-03-11T15:46:21.541Z,76.40
2023-03-11T15:49:24.373Z,76.86
2023-03-11T15:52:27.177Z,76.42
2023-03-11T15:55:37.410Z,76.71
2023-03-11T15:58:40.188Z,76.63
2023-03-11T16:05:35.959Z,77.01
2023-03-11T16:08:38.736Z,77.08
2023-03-11T16:11:42.445Z,76.85
2023-03-11T16:14:46.393Z,76.65
2023-03-11T16:17:51.114Z,75.96
2023-03-11T16:20:55.646Z,75.88
2023-03-11T16:23:58.450Z,75.47
2023-03-11T16:35:14.293Z,75.73
2023-03-11T16:38:19.525Z,75.98
2023-03-11T16:41:22.446Z,76.35
2023-03-11T16:44:25.139Z,76.52
2023-03-11T16:47:27.803Z,76.66
2023-03-11T16:50:30.600Z,76.52
2023-03-11T16:53:33.526Z,76.61
2023-03-11T16:56:36.894Z,76.88
2023-03-11T16:59:39.762Z,76.90
2023-03-11T17:02:42.480Z,76.90
2023-03-11T17:05:46.386Z,77.07
2023-03-11T17:08:52.326Z,77.14
2023-03-11T17:11:55.264Z,77.17
2023-03-11T17:15:07.110Z,77.32
2023-03-11T17:18:11.775Z,77.20
2023-03-11T17:21:41.550Z,77.30
2023-03-11T17:24:44.362Z,77.46
2023-03-11T17:27:47.156Z,77.37
2023-03-11T17:30:49.928Z,77.56
2023-03-11T17:33:52.900Z,77.57
2023-03-11T17:36:59.000Z,77.76
2023-03-11T17:40:01.778Z,77.69
2023-03-11T17:43:04.484Z,77.55
2023-03-11T17:46:14.318Z,77.42
2023-03-11T17:49:17.098Z,77.29
2023-03-11T17:52:19.850Z,77.50
2023-03-11T17:55:22.752Z,77.64
2023-03-11T17:58:26.265Z,77.67
2023-03-11T18:01:30.118Z,77.66
2023-03-11T18:04:32.800Z,77.71
2023-03-11T18:07:39.186Z,77.56
2023-03-11T18:10:42.155Z,77.67
2023-03-11T18:13:45.025Z,77.77
2023-03-11T18:20:39.784Z,77.64
2023-03-11T18:23:43.276Z,77.67
2023-03-11T18:26:46.182Z,77.70
2023-03-11T18:29:48.916Z,77.57
2023-03-11T18:32:51.626Z,77.68
2023-03-11T18:35:54.422Z,77.48
2023-03-11T18:38:58.819Z,77.59
2023-03-11T18:42:03.019Z,77.59
2023-03-11T18:45:07.450Z,77.71
2023-03-11T18:48:10.268Z,77.74
2023-03-11T18:51:13.032Z,77.69
2023-03-11T18:54:53.668Z,77.80
2023-03-11T18:57:59.548Z,77.82
2023-03-11T19:01:06.735Z,77.84
2023-03-11T19:08:03.614Z,77.71
2023-03-11T19:11:07.727Z,77.64
2023-03-11T19:14:11.114Z,77.78
2023-03-11T19:17:16.553Z,77.78
2023-03-11T19:20:19.413Z,77.79
2023-03-11T19:23:22.162Z,77.83
2023-03-11T19:26:41.451Z,77.66
2023-03-11T19:29:46.819Z,77.59
2023-03-11T19:32:53.095Z,77.69
2023-03-11T19:35:59.034Z,77.64
2023-03-11T19:39:01.910Z,77.64
2023-03-11T19:42:04.693Z,77.64
2023-03-11T19:45:08.072Z,77.66
2023-03-11T19:48:13.154Z,77.55
2023-03-11T19:51:17.416Z,77.52
2023-03-11T19:54:20.444Z,77.51
2023-03-11T19:57:23.195Z,77.33
2023-03-11T20:00:26.176Z,77.37
2023-03-11T20:03:29.767Z,77.37
2023-03-11T20:06:32.578Z,77.27
2023-03-11T20:09:53.394Z,77.29
2023-03-11T20:13:02.555Z,77.45
2023-03-11T20:16:12.190Z,77.45
2023-03-11T20:19:15.095Z,77.44
2023-03-11T20:22:17.837Z,77.43
2023-03-11T20:25:21.360Z,77.41
2023-03-11T20:28:24.237Z,77.41
2023-03-11T20:31:28.175Z,77.42
2023-03-11T20:34:31.074Z,77.46
2023-03-11T20:37:33.885Z,77.39
2023-03-11T20:40:36.726Z,77.28
2023-03-11T20:43:40.590Z,77.31
2023-03-11T20:46:43.775Z,77.44
2023-03-11T20:49:46.730Z,77.32
2023-03-11T20:52:50.887Z,77.28
2023-03-11T20:55:58.695Z,77.21
2023-03-11T20:59:01.758Z,77.34
2023-03-11T21:02:06.554Z,77.42
2023-03-11T21:05:10.275Z,77.38
2023-03-11T21:08:13.326Z,77.10
2023-03-11T21:11:17.158Z,77.05
2023-03-11T21:14:20.027Z,77.24
2023-03-11T21:17:22.883Z,77.20
2023-03-11T21:20:25.759Z,77.12
2023-03-11T21:23:28.506Z,77.14
2023-03-11T21:26:31.690Z,77.16
2023-03-11T21:29:34.717Z,77.21
2023-03-11T21:32:37.611Z,77.20
2023-03-11T21:35:40.469Z,77.23
2023-03-11T21:38:43.499Z,77.16
2023-03-11T21:41:46.379Z,77.26
2023-03-11T21:44:51.505Z,77.28
2023-03-11T21:47:54.528Z,77.18
2023-03-11T21:50:57.338Z,77.23
2023-03-11T21:54:00.253Z,77.24
2023-03-11T21:57:06.166Z,77.13
2023-03-11T22:00:10.266Z,77.11
2023-03-11T22:03:13.280Z,77.09
2023-03-11T22:06:16.148Z,77.05
2023-03-11T22:09:18.891Z,77.02
2023-03-11T22:12:21.610Z,76.78
2023-03-11T22:15:24.901Z,76.68
2023-03-11T22:18:27.727Z,76.70
2023-03-11T22:21:30.978Z,76.84
2023-03-11T22:24:33.686Z,76.86
2023-03-11T22:27:36.526Z,76.85
2023-03-11T22:30:39.274Z,76.76
2023-03-11T22:33:42.065Z,76.78
2023-03-11T22:36:44.801Z,76.88
2023-03-11T22:39:47.686Z,76.94
2023-03-11T22:42:50.465Z,76.68
2023-03-11T22:45:53.294Z,76.76
2023-03-11T22:48:56.016Z,76.75
2023-03-11T22:51:58.750Z,76.90
2023-03-11T22:55:01.546Z,76.91
2023-03-11T22:58:04.346Z,76.85
2023-03-11T23:01:07.840Z,76.74
2023-03-11T23:04:10.741Z,76.72
2023-03-11T23:07:19.230Z,76.95
2023-03-11T23:10:27.871Z,76.89
2023-03-11T23:13:36.791Z,76.80
2023-03-11T23:16:41.390Z,76.69
2023-03-11T23:19:44.156Z,76.67
2023-03-11T23:22:46.926Z,76.68
2023-03-11T23:25:49.692Z,76.72
2023-03-11T23:28:52.676Z,76.70
2023-03-11T23:35:42.012Z,76.49
2023-03-11T23:38:45.135Z,76.49
2023-03-11T23:41:47.845Z,76.46
2023-03-11T23:44:50.753Z,76.49
2023-03-11T23:47:53.482Z,76.34
2023-03-11T23:50:58.035Z,76.35
2023-03-11T23:54:00.841Z,76.55
2023-03-11T23:57:04.067Z,76.10
